createdAt,value
2019-05-28T00:00:13.431Z,14.13
2019-05-28T00:02:15.658Z,14.14
2019-05-28T00:04:18.022Z,14.12
2019-05-28T00:06:20.954Z,14.15
2019-05-28T00:08:23.191Z,14.17
2019-05-28T00:10:26.206Z,14.12
2019-05-28T00:12:28.625Z,14.10
2019-05-28T00:14:30.380Z,14.14
2019-05-28T00:16:33.681Z,14.06
2019-05-28T00:18:35.903Z,14.11
2019-05-28T00:20:37.994Z,14.10
2019-05-28T00:22:40.051Z,14.12
2019-05-28T00:24:42.538Z,14.14
2019-05-28T00:26:45.738Z,14.09
2019-05-28T00:28:48.095Z,14.02
2019-05-28T00:30:50.329Z,14.08
2019-05-28T00:32:52.811Z,14.10
2019-05-28T00:34:55.296Z,14.05
2019-05-28T00:36:57.512Z,13.99
2019-05-28T00:39:00.944Z,14.02
2019-05-28T00:41:03.490Z,14.01
2019-05-28T00:43:07.230Z,14.01
2019-05-28T00:45:10.299Z,13.99
2019-05-28T00:47:12.607Z,13.97
2019-05-28T00:49:14.832Z,14.01
2019-05-28T00:51:16.952Z,13.88
2019-05-28T00:53:18.973Z,13.78
2019-05-28T00:55:21.333Z,13.78
2019-05-28T00:57:24.309Z,13.82
2019-05-28T00:59:27.984Z,13.82
2019-05-28T01:01:30.374Z,13.89
2019-05-28T01:03:33.526Z,13.91
2019-05-28T01:05:35.809Z,13.90
2019-05-28T01:07:38.136Z,13.78
2019-05-28T01:09:40.502Z,13.72
2019-05-28T01:11:42.603Z,13.70
2019-05-28T01:13:44.792Z,13.69
2019-05-28T01:15:47.066Z,13.73
2019-05-28T01:17:49.427Z,13.71
2019-05-28T01:19:52.215Z,13.67
2019-05-28T01:21:54.714Z,13.71
2019-05-28T01:23:56.704Z,13.66
2019-05-28T01:25:59.118Z,13.72
2019-05-28T01:28:01.080Z,13.66
2019-05-28T01:30:03.652Z,13.68
2019-05-28T01:32:07.278Z,13.70
2019-05-28T01:34:09.204Z,13.63
2019-05-28T01:36:12.088Z,13.65
2019-05-28T01:38:14.250Z,13.49
2019-05-28T01:40:17.012Z,13.48
2019-05-28T01:42:19.247Z,13.48
2019-05-28T01:44:21.766Z,13.59
2019-05-28T01:46:25.640Z,13.52
2019-05-28T01:48:27.843Z,13.55
2019-05-28T01:50:30.015Z,13.46
2019-05-28T01:52:32.082Z,13.45
2019-05-28T01:54:34.107Z,13.44
2019-05-28T01:56:36.392Z,13.38
2019-05-28T01:58:38.308Z,13.38
2019-05-28T02:00:40.440Z,13.36
2019-05-28T02:02:42.800Z,13.34
2019-05-28T02:04:44.819Z,13.31
2019-05-28T02:06:46.898Z,13.39
2019-05-28T02:08:49.394Z,13.44
2019-05-28T02:10:51.826Z,13.41
2019-05-28T02:12:54.060Z,13.46
2019-05-28T02:14:56.374Z,13.38
2019-05-28T02:16:58.559Z,13.42
2019-05-28T02:19:00.884Z,13.43
2019-05-28T02:21:03.413Z,13.38
2019-05-28T02:23:05.242Z,13.42
2019-05-28T02:25:07.801Z,13.33
2019-05-28T02:27:10.244Z,13.37
2019-05-28T02:29:11.825Z,13.37
2019-05-28T02:31:26.930Z,13.36
2019-05-28T02:33:18.419Z,13.34
2019-05-28T02:35:22.462Z,13.29
2019-05-28T02:37:24.825Z,13.27
2019-05-28T02:39:27.174Z,13.26
2019-05-28T02:41:29.248Z,13.30
2019-05-28T02:43:31.699Z,13.16
2019-05-28T02:45:34.889Z,13.28
2019-05-28T02:47:37.114Z,13.25
2019-05-28T02:49:39.230Z,13.21
2019-05-28T02:51:41.893Z,13.21
2019-05-28T02:53:44.193Z,13.24
2019-05-28T02:55:47.030Z,13.19
2019-05-28T02:57:50.427Z,13.26
2019-05-28T02:59:53.699Z,13.21
2019-05-28T03:01:57.496Z,13.23
2019-05-28T03:04:02.470Z,13.33
2019-05-28T03:06:06.549Z,13.33
2019-05-28T03:08:11.019Z,13.34
2019-05-28T03:10:13.873Z,13.39
2019-05-28T03:12:15.886Z,13.38
2019-05-28T03:14:18.227Z,13.48
2019-05-28T03:16:22.993Z,13.49
2019-05-28T03:18:27.171Z,13.46
2019-05-28T03:20:30.739Z,13.49
2019-05-28T03:22:35.380Z,13.44
2019-05-28T03:24:41.032Z,13.43
2019-05-28T03:26:43.180Z,13.47
2019-05-28T03:28:45.730Z,13.43
2019-05-28T03:30:48.521Z,13.47
2019-05-28T03:32:50.807Z,13.49
2019-05-28T03:34:53.145Z,13.48
2019-05-28T03:36:55.434Z,13.49
2019-05-28T03:38:58.435Z,13.54
2019-05-28T03:41:01.711Z,13.51
2019-05-28T03:43:03.961Z,13.54
2019-05-28T03:45:06.730Z,13.52
2019-05-28T03:47:10.234Z,13.55
2019-05-28T03:49:12.612Z,13.43
2019-05-28T03:51:15.935Z,13.48
2019-05-28T03:53:17.928Z,13.41
2019-05-28T03:55:20.042Z,13.42
2019-05-28T03:57:22.181Z,13.32
2019-05-28T03:59:24.199Z,13.27
2019-05-28T04:01:28.136Z,13.37
2019-05-28T04:03:30.140Z,13.35
2019-05-28T04:05:32.993Z,13.44
2019-05-28T04:07:34.783Z,13.36
2019-05-28T04:09:36.927Z,13.36
2019-05-28T04:11:44.790Z,13.39
2019-05-28T04:13:43.206Z,13.42
2019-05-28T04:15:46.334Z,13.35
2019-05-28T04:17:49.067Z,13.28
2019-05-28T04:19:51.440Z,13.32
2019-05-28T04:21:54.626Z,13.37
2019-05-28T04:23:56.879Z,13.33
2019-05-28T04:25:58.930Z,13.37
2019-05-28T04:28:01.048Z,13.42
2019-05-28T04:30:03.988Z,13.35
2019-05-28T04:32:06.180Z,13.34
2019-05-28T04:34:08.205Z,13.34
2019-05-28T04:36:10.592Z,13.38
2019-05-28T04:38:13.780Z,13.40
2019-05-28T04:40:15.806Z,13.43
2019-05-28T04:42:18.297Z,13.36
2019-05-28T04:44:19.995Z,13.28
2019-05-28T04:46:22.373Z,13.25
2019-05-28T04:48:25.522Z,13.22
2019-05-28T04:50:27.542Z,13.24
2019-05-28T04:52:30.797Z,13.09
2019-05-28T04:54:33.247Z,13.01
2019-05-28T04:56:35.403Z,13.02
2019-05-28T04:58:37.563Z,13.06
2019-05-28T05:00:39.779Z,13.00
2019-05-28T05:02:57.747Z,12.87
2019-05-28T05:04:46.996Z,12.82
2019-05-28T05:06:49.182Z,12.70
2019-05-28T05:08:51.211Z,12.63
2019-05-28T05:10:54.244Z,12.47
2019-05-28T05:12:57.823Z,12.58
2019-05-28T05:14:59.728Z,12.69
2019-05-28T05:17:01.804Z,12.66
2019-05-28T05:19:04.193Z,12.55
2019-05-28T05:21:06.211Z,12.65
2019-05-28T05:23:08.629Z,12.70
2019-05-28T05:25:11.125Z,12.71
2019-05-28T05:27:13.152Z,12.58
2019-05-28T05:29:15.178Z,12.60
2019-05-28T05:31:17.419Z,12.54
2019-05-28T05:33:20.728Z,12.60
2019-05-28T05:35:23.080Z,12.53
2019-05-28T05:39:09.291Z,12.57
2019-05-28T05:41:11.143Z,12.55
2019-05-28T05:43:13.293Z,12.65
2019-05-28T05:45:15.667Z,12.59
2019-05-28T05:47:17.773Z,12.68
2019-05-28T05:49:19.985Z,12.72
2019-05-28T05:51:22.477Z,12.66
2019-05-28T05:53:24.208Z,12.72
2019-05-28T05:55:26.596Z,12.67
2019-05-28T05:57:28.881Z,12.68
2019-05-28T05:59:30.997Z,12.62
2019-05-28T06:01:33.219Z,12.54
2019-05-28T06:03:40.393Z,12.56
2019-05-28T06:05:39.532Z,12.51
2019-05-28T06:07:41.836Z,12.43
2019-05-28T06:09:44.009Z,12.50
2019-05-28T06:11:46.644Z,12.45
2019-05-28T06:13:48.349Z,12.44
2019-05-28T06:15:50.492Z,12.53
2019-05-28T06:17:52.595Z,12.48
2019-05-28T06:19:54.585Z,12.43
2019-05-28T06:21:57.195Z,12.47
2019-05-28T06:23:59.118Z,12.50
2019-05-28T06:26:01.300Z,12.50
2019-05-28T06:28:03.924Z,12.51
2019-05-28T06:30:07.903Z,12.46
2019-05-28T06:32:10.028Z,12.32
2019-05-28T06:34:12.526Z,12.46
2019-05-28T06:36:14.624Z,12.40
2019-05-28T06:38:16.693Z,12.48
2019-05-28T06:40:19.838Z,12.45
2019-05-28T06:42:23.031Z,12.49
2019-05-28T06:44:27.272Z,12.48
2019-05-28T06:46:30.061Z,12.39
2019-05-28T06:48:32.357Z,12.39
2019-05-28T06:50:34.575Z,12.38
2019-05-28T06:52:36.932Z,12.33
2019-05-28T06:54:39.443Z,12.36
2019-05-28T06:56:41.747Z,12.35
2019-05-28T06:58:44.033Z,12.25
2019-05-28T07:00:46.155Z,12.37
2019-05-28T07:02:48.468Z,12.38
2019-05-28T07:04:50.502Z,12.37
2019-05-28T07:06:52.744Z,12.36
2019-05-28T07:08:55.175Z,12.35
2019-05-28T07:10:58.460Z,12.42
2019-05-28T07:13:01.725Z,12.46
2019-05-28T07:15:04.374Z,12.48
2019-05-28T07:17:07.295Z,12.43
2019-05-28T07:19:23.381Z,12.46
2019-05-28T07:21:13.269Z,12.44
2019-05-28T07:23:15.552Z,12.36
2019-05-28T07:25:17.695Z,12.44
2019-05-28T07:27:19.810Z,12.32
2019-05-28T07:29:22.543Z,12.39
2019-05-28T07:31:24.601Z,12.18
2019-05-28T07:33:26.633Z,12.14
2019-05-28T07:35:44.828Z,12.03
2019-05-28T07:37:33.466Z,12.03
2019-05-28T07:39:35.509Z,12.11
2019-05-28T07:41:39.245Z,12.08
2019-05-28T07:43:41.311Z,12.12
2019-05-28T07:45:43.734Z,12.15
2019-05-28T07:47:47.042Z,12.01
2019-05-28T07:49:49.150Z,12.02
2019-05-28T07:51:51.244Z,12.14
2019-05-28T07:53:53.550Z,12.08
2019-05-28T07:55:55.643Z,12.23
2019-05-28T07:57:58.964Z,12.08
2019-05-28T08:00:05.374Z,12.06
2019-05-28T08:02:05.526Z,12.05
2019-05-28T08:04:07.583Z,12.16
2019-05-28T08:06:09.893Z,12.18
2019-05-28T08:08:16.046Z,12.19
2019-05-28T08:10:18.088Z,12.33
2019-05-28T08:12:20.379Z,12.36
2019-05-28T08:14:22.881Z,12.24
2019-05-28T08:16:25.081Z,12.30
2019-05-28T08:18:28.121Z,12.38
2019-05-28T08:20:30.275Z,12.43
2019-05-28T08:22:41.638Z,12.37
2019-05-28T08:24:36.742Z,12.33
2019-05-28T08:26:38.605Z,12.28
2019-05-28T08:28:40.646Z,12.15
2019-05-28T08:30:42.970Z,12.12
2019-05-28T08:32:45.191Z,12.19
2019-05-28T08:35:04.169Z,12.19
2019-05-28T08:37:05.349Z,12.21
2019-05-28T08:38:55.844Z,12.28
2019-05-28T08:40:57.880Z,12.33
2019-05-28T08:43:00.150Z,12.39
2019-05-28T08:45:02.320Z,12.40
2019-05-28T08:47:05.807Z,12.50
2019-05-28T08:49:09.532Z,12.37
2019-05-28T08:51:11.786Z,12.35
2019-05-28T08:53:13.729Z,12.37
2019-05-28T08:55:17.437Z,12.35
2019-05-28T08:57:20.053Z,12.31
2019-05-28T08:59:22.102Z,12.33
2019-05-28T09:01:24.525Z,12.28
2019-05-28T09:03:26.214Z,12.36
2019-05-28T09:05:28.176Z,12.23
2019-05-28T09:07:30.803Z,12.23
2019-05-28T09:09:32.965Z,12.18
2019-05-28T09:11:35.015Z,12.18
2019-05-28T09:13:37.505Z,12.24
2019-05-28T09:15:39.077Z,12.24
2019-05-28T09:17:42.128Z,12.23
2019-05-28T09:19:44.304Z,12.25
2019-05-28T09:21:46.350Z,12.42
2019-05-28T09:23:48.693Z,12.56
2019-05-28T09:25:50.779Z,12.68
2019-05-28T09:27:52.946Z,12.79
2019-05-28T09:29:55.537Z,12.72
2019-05-28T09:31:58.205Z,12.98
2019-05-28T09:34:00.858Z,12.98
2019-05-28T09:36:08.507Z,13.09
2019-05-28T09:38:08.711Z,13.08
2019-05-28T09:40:11.322Z,13.18
2019-05-28T09:42:13.379Z,13.26
2019-05-28T09:44:15.603Z,13.27
2019-05-28T09:46:18.778Z,13.17
2019-05-28T09:48:20.854Z,13.37
2019-05-28T09:50:30.551Z,13.37
2019-05-28T09:52:27.178Z,13.30
2019-05-28T09:54:29.265Z,13.25
2019-05-28T09:56:32.826Z,13.13
2019-05-28T09:58:35.004Z,13.09
2019-05-28T10:00:38.054Z,13.31
2019-05-28T10:02:40.417Z,13.25
2019-05-28T10:04:49.088Z,13.50
2019-05-28T10:06:46.550Z,13.43
2019-05-28T10:08:48.941Z,13.52
2019-05-28T10:10:51.162Z,13.49
2019-05-28T10:12:53.762Z,13.23
2019-05-28T10:14:55.614Z,13.41
2019-05-28T10:16:57.861Z,13.47
2019-05-28T10:18:59.862Z,13.61
2019-05-28T10:21:17.100Z,13.64
2019-05-28T10:23:06.145Z,13.48
2019-05-28T10:25:09.466Z,13.44
2019-05-28T10:27:11.810Z,13.48
2019-05-28T10:29:13.775Z,13.54
2019-05-28T10:31:16.084Z,13.62
2019-05-28T10:33:18.265Z,13.69
2019-05-28T10:35:20.822Z,13.83
2019-05-28T10:37:22.886Z,13.97
2019-05-28T10:39:25.420Z,13.90
2019-05-28T10:41:27.489Z,14.12
2019-05-28T10:43:29.823Z,14.08
2019-05-28T10:45:32.307Z,14.33
2019-05-28T10:47:34.511Z,14.40
2019-05-28T10:49:36.744Z,14.71
2019-05-28T10:51:38.905Z,15.00
2019-05-28T10:53:40.991Z,15.47
2019-05-28T10:55:43.080Z,15.47
2019-05-28T10:57:45.611Z,15.31
2019-05-28T10:59:47.302Z,15.31
2019-05-28T11:01:49.657Z,15.47
2019-05-28T11:03:51.883Z,15.63
2019-05-28T11:05:53.937Z,15.77
2019-05-28T11:07:56.024Z,15.74
2019-05-28T11:09:58.283Z,15.51
2019-05-28T11:12:00.343Z,15.22
2019-05-28T11:14:02.435Z,15.42
2019-05-28T11:16:04.988Z,15.70
2019-05-28T11:18:06.901Z,15.82
2019-05-28T11:20:10.542Z,15.77
2019-05-28T11:22:13.325Z,15.92
2019-05-28T11:24:15.417Z,15.75
2019-05-28T11:26:17.950Z,16.00
2019-05-28T11:28:20.083Z,15.72
2019-05-28T11:30:22.840Z,15.80
2019-05-28T11:32:25.062Z,15.69
2019-05-28T11:34:27.641Z,15.61
2019-05-28T11:36:29.734Z,15.45
2019-05-28T11:38:31.746Z,15.42
2019-05-28T11:40:33.937Z,15.43
2019-05-28T11:42:35.968Z,15.29
2019-05-28T11:44:37.998Z,15.29
2019-05-28T11:46:40.334Z,15.01
2019-05-28T11:48:43.536Z,15.23
2019-05-28T11:50:45.558Z,15.24
2019-05-28T11:52:48.552Z,15.48
2019-05-28T11:54:51.034Z,15.52
2019-05-28T11:56:52.618Z,15.63
2019-05-28T11:58:55.636Z,15.44
2019-05-28T12:00:57.833Z,15.39
2019-05-28T12:02:59.862Z,15.34
2019-05-28T12:05:02.272Z,15.02
2019-05-28T12:07:06.230Z,15.10
2019-05-28T12:09:08.316Z,15.25
2019-05-28T12:11:10.695Z,15.58
2019-05-28T12:13:13.443Z,15.65
2019-05-28T12:15:20.022Z,15.93
2019-05-28T12:17:40.775Z,15.77
2019-05-28T12:19:26.421Z,16.09
2019-05-28T12:21:28.696Z,16.07
2019-05-28T12:23:31.149Z,16.16
2019-05-28T12:25:33.299Z,15.98
2019-05-28T12:27:36.416Z,16.03
2019-05-28T12:29:51.428Z,15.84
2019-05-28T12:31:43.985Z,16.19
2019-05-28T12:33:46.047Z,16.44
2019-05-28T12:35:48.184Z,16.74
2019-05-28T12:37:51.040Z,16.49
2019-05-28T12:39:53.369Z,16.31
2019-05-28T12:42:03.201Z,16.39
2019-05-28T12:43:59.573Z,16.07
2019-05-28T12:46:01.864Z,16.34
2019-05-28T12:48:11.900Z,16.05
2019-05-28T12:50:18.922Z,16.23
2019-05-28T12:52:13.276Z,16.42
2019-05-28T12:54:16.731Z,16.51
2019-05-28T12:56:18.950Z,16.46
2019-05-28T12:58:21.069Z,16.26
2019-05-28T13:00:25.794Z,16.01
2019-05-28T13:02:27.936Z,16.01
2019-05-28T13:04:30.057Z,16.19
2019-05-28T13:06:32.274Z,15.98
2019-05-28T13:08:34.355Z,15.81
2019-05-28T13:10:36.513Z,15.99
2019-05-28T13:12:38.977Z,16.11
2019-05-28T13:14:41.422Z,16.27
2019-05-28T13:16:43.317Z,16.18
2019-05-28T13:18:47.319Z,16.28
2019-05-28T13:20:49.392Z,16.29
2019-05-28T13:22:51.497Z,15.98
2019-05-28T13:24:53.804Z,15.60
2019-05-28T13:26:55.866Z,15.81
2019-05-28T13:28:58.029Z,16.32
2019-05-28T13:31:00.411Z,16.30
2019-05-28T13:33:02.377Z,15.89
2019-05-28T13:35:05.662Z,15.86
2019-05-28T13:37:08.157Z,15.90
2019-05-28T13:39:10.479Z,15.97
2019-05-28T13:41:12.736Z,16.03
2019-05-28T13:43:16.327Z,16.00
2019-05-28T13:45:19.704Z,15.97
2019-05-28T13:47:32.927Z,16.16
2019-05-28T13:49:26.332Z,16.40
2019-05-28T13:51:28.854Z,16.24
2019-05-28T13:53:30.986Z,16.06
2019-05-28T13:55:33.655Z,16.03
2019-05-28T13:57:39.212Z,16.35
2019-05-28T13:59:39.922Z,16.06
2019-05-28T14:01:42.303Z,16.14
2019-05-28T14:03:44.517Z,15.68
2019-05-28T14:05:48.738Z,15.66
2019-05-28T14:07:51.146Z,15.75
2019-05-28T14:09:54.022Z,15.84
2019-05-28T14:11:56.052Z,15.60
2019-05-28T14:14:04.054Z,15.69
2019-05-28T14:16:06.116Z,15.62
2019-05-28T14:18:08.281Z,15.58
2019-05-28T14:20:11.857Z,15.68
2019-05-28T14:22:14.109Z,15.92
2019-05-28T14:24:16.069Z,15.82
2019-05-28T14:26:19.009Z,15.71
2019-05-28T14:28:21.223Z,15.54
2019-05-28T14:30:23.831Z,15.85
2019-05-28T14:32:26.242Z,15.72
2019-05-28T14:34:28.430Z,15.56
2019-05-28T14:36:30.523Z,15.48
2019-05-28T14:38:33.569Z,15.39
2019-05-28T14:40:35.814Z,15.25
2019-05-28T14:42:38.020Z,15.35
2019-05-28T14:44:43.256Z,15.45
2019-05-28T14:46:45.250Z,15.62
2019-05-28T14:48:47.383Z,15.51
2019-05-28T14:50:49.632Z,15.47
2019-05-28T14:52:51.780Z,15.09
2019-05-28T14:54:53.853Z,15.19
2019-05-28T14:56:56.891Z,15.10
2019-05-28T14:58:59.208Z,15.48
2019-05-28T15:01:01.602Z,15.39
2019-05-28T15:03:03.771Z,15.52
2019-05-28T15:05:06.156Z,15.83
2019-05-28T15:07:07.947Z,15.81
2019-05-28T15:09:20.993Z,15.66
2019-05-28T15:11:14.672Z,15.24
2019-05-28T15:13:16.889Z,15.44
2019-05-28T15:15:34.475Z,15.14
2019-05-28T15:17:26.716Z,15.31
2019-05-28T15:19:28.244Z,15.18
2019-05-28T15:21:30.866Z,15.12
2019-05-28T15:23:32.888Z,15.38
2019-05-28T15:25:35.021Z,15.13
2019-05-28T15:27:37.248Z,15.23
2019-05-28T15:29:39.437Z,15.27
2019-05-28T15:31:41.488Z,15.36
2019-05-28T15:33:43.536Z,15.57
2019-05-28T15:35:47.253Z,15.64
2019-05-28T15:37:49.535Z,15.44
2019-05-28T15:39:51.807Z,15.04
2019-05-28T15:41:53.982Z,15.01
2019-05-28T15:43:56.569Z,15.22
2019-05-28T15:45:59.001Z,15.02
2019-05-28T15:48:01.050Z,15.28
2019-05-28T15:50:04.235Z,15.23
2019-05-28T15:52:07.973Z,15.18
2019-05-28T15:54:10.382Z,14.97
2019-05-28T15:56:12.508Z,15.20
2019-05-28T15:58:15.868Z,14.83
2019-05-28T16:00:20.971Z,14.98
2019-05-28T16:02:22.969Z,15.01
2019-05-28T16:04:25.654Z,14.85
2019-05-28T16:06:27.873Z,14.89
2019-05-28T16:08:30.011Z,15.12
2019-05-28T16:10:32.325Z,14.87
2019-05-28T16:12:34.737Z,14.59
2019-05-28T16:14:36.338Z,14.67
2019-05-28T16:16:38.407Z,15.02
2019-05-28T16:18:40.888Z,14.67
2019-05-28T16:20:42.962Z,14.73
2019-05-28T16:22:45.071Z,14.68
2019-05-28T16:24:47.118Z,14.72
2019-05-28T16:26:49.360Z,14.54
2019-05-28T16:28:51.548Z,14.34
2019-05-28T16:31:11.136Z,14.31
2019-05-28T16:32:57.712Z,14.61
2019-05-28T16:34:59.847Z,14.48
2019-05-28T16:37:02.086Z,14.38
2019-05-28T16:39:07.691Z,14.33
2019-05-28T16:41:11.694Z,14.34
2019-05-28T16:43:13.938Z,14.25
2019-05-28T16:45:16.898Z,14.23
2019-05-28T16:47:19.284Z,14.17
2019-05-28T16:49:21.139Z,14.09
2019-05-28T16:51:23.334Z,14.09
2019-05-28T16:53:25.765Z,14.12
2019-05-28T16:55:27.846Z,13.99
2019-05-28T16:57:29.921Z,14.22
2019-05-28T16:59:32.260Z,14.41
2019-05-28T17:01:34.396Z,14.18
2019-05-28T17:03:36.415Z,14.23
2019-05-28T17:05:38.499Z,14.09
2019-05-28T17:07:40.694Z,14.22
2019-05-28T17:09:42.753Z,14.03
2019-05-28T17:11:45.089Z,14.25
2019-05-28T17:13:49.388Z,14.25
2019-05-28T17:15:52.226Z,14.07
2019-05-28T17:17:54.602Z,14.11
2019-05-28T17:19:56.664Z,13.88
2019-05-28T17:21:59.039Z,14.02
2019-05-28T17:24:00.965Z,14.18
2019-05-28T17:26:03.667Z,14.38
2019-05-28T17:28:05.920Z,14.25
2019-05-28T17:30:18.883Z,14.13
2019-05-28T17:32:12.781Z,14.09
2019-05-28T17:34:15.062Z,13.93
2019-05-28T17:36:17.463Z,13.82
2019-05-28T17:38:19.523Z,13.64
2019-05-28T17:40:22.340Z,13.66
2019-05-28T17:42:24.777Z,13.54
2019-05-28T17:44:26.830Z,13.48
2019-05-28T17:46:29.107Z,13.46
2019-05-28T17:48:31.794Z,13.43
2019-05-28T17:50:34.055Z,13.49
2019-05-28T17:52:36.118Z,13.54
2019-05-28T17:54:38.405Z,13.55
2019-05-28T17:56:40.423Z,13.93
2019-05-28T17:58:42.634Z,13.83
2019-05-28T18:00:44.979Z,13.87
2019-05-28T18:02:48.555Z,13.74
2019-05-28T18:04:50.796Z,13.68
2019-05-28T18:06:53.002Z,13.77
2019-05-28T18:08:55.050Z,13.81
2019-05-28T18:11:04.645Z,13.83
2019-05-28T18:13:01.750Z,13.90
2019-05-28T18:15:04.889Z,13.97
2019-05-28T18:17:08.104Z,13.61
2019-05-28T18:19:10.400Z,13.71
2019-05-28T18:21:13.498Z,13.73
2019-05-28T18:23:15.578Z,13.70
2019-05-28T18:25:20.235Z,13.87
2019-05-28T18:27:21.893Z,13.83
2019-05-28T18:29:24.167Z,13.86
2019-05-28T18:31:27.604Z,13.67
2019-05-28T18:33:29.634Z,13.66
2019-05-28T18:35:31.677Z,13.61
2019-05-28T18:37:34.067Z,13.60
2019-05-28T18:39:36.158Z,13.64
2019-05-28T18:41:38.198Z,13.58
2019-05-28T18:43:40.577Z,13.35
2019-05-28T18:45:42.802Z,13.29
2019-05-28T18:47:44.970Z,13.30
2019-05-28T18:49:47.482Z,13.42
2019-05-28T18:51:49.688Z,13.44
2019-05-28T18:53:51.855Z,13.44
2019-05-28T18:55:54.274Z,13.45
2019-05-28T18:57:56.015Z,13.42
2019-05-28T18:59:58.363Z,13.24
2019-05-28T19:02:00.660Z,13.24
2019-05-28T19:04:02.637Z,13.18
2019-05-28T19:06:05.035Z,13.09
2019-05-28T19:08:07.800Z,13.23
2019-05-28T19:10:09.575Z,13.10
2019-05-28T19:12:11.796Z,13.18
2019-05-28T19:14:14.064Z,13.12
2019-05-28T19:16:16.558Z,13.14
2019-05-28T19:18:18.331Z,13.11
2019-05-28T19:20:20.553Z,13.00
2019-05-28T19:22:22.404Z,12.97
2019-05-28T19:24:24.795Z,12.99
2019-05-28T19:26:26.908Z,12.85
2019-05-28T19:28:30.068Z,12.84
2019-05-28T19:30:33.765Z,12.79
2019-05-28T19:32:35.992Z,12.82
2019-05-28T19:34:38.394Z,12.76
2019-05-28T19:36:40.546Z,12.81
2019-05-28T19:38:45.829Z,12.73
2019-05-28T19:40:47.628Z,12.66
2019-05-28T19:42:50.046Z,12.55
2019-05-28T19:44:52.462Z,12.55
2019-05-28T19:46:54.281Z,12.42
2019-05-28T19:48:56.583Z,12.48
2019-05-28T19:50:58.851Z,12.44
2019-05-28T19:53:00.906Z,12.48
2019-05-28T19:55:03.500Z,12.45
2019-05-28T19:57:07.325Z,12.48
2019-05-28T19:59:09.395Z,12.48
2019-05-28T20:01:11.558Z,12.54
2019-05-28T20:03:14.126Z,12.48
2019-05-28T20:05:16.086Z,12.50
2019-05-28T20:07:18.325Z,12.45
2019-05-28T20:09:20.586Z,12.41
2019-05-28T20:11:23.735Z,12.27
2019-05-28T20:13:26.032Z,12.28
2019-05-28T20:15:29.107Z,12.29
2019-05-28T20:17:31.422Z,12.25
2019-05-28T20:19:35.348Z,12.16
2019-05-28T20:21:38.089Z,12.18
2019-05-28T20:23:41.018Z,12.13
2019-05-28T20:25:47.508Z,12.18
2019-05-28T20:27:49.611Z,12.12
2019-05-28T20:29:51.943Z,12.12
2019-05-28T20:31:53.956Z,12.15
2019-05-28T20:33:56.602Z,12.12
2019-05-28T20:35:59.726Z,12.10
2019-05-28T20:38:05.779Z,12.09
2019-05-28T20:40:08.064Z,12.12
2019-05-28T20:42:26.183Z,12.12
2019-05-28T20:44:14.540Z,12.06
2019-05-28T20:46:16.753Z,12.11
2019-05-28T20:48:18.980Z,12.08
2019-05-28T20:50:21.475Z,12.03
2019-05-28T20:52:23.277Z,12.01
2019-05-28T20:54:25.395Z,11.93
2019-05-28T20:56:27.449Z,11.90
2019-05-28T20:58:39.964Z,11.86
2019-05-28T21:00:33.838Z,11.86
2019-05-28T21:02:36.242Z,11.85
2019-05-28T21:04:41.594Z,11.78
2019-05-28T21:06:43.203Z,11.89
2019-05-28T21:08:45.401Z,11.82
2019-05-28T21:10:48.192Z,11.70
2019-05-28T21:12:52.601Z,11.62
2019-05-28T21:14:54.899Z,11.64
2019-05-28T21:16:57.424Z,11.61
2019-05-28T21:18:59.463Z,11.57
2019-05-28T21:21:01.691Z,11.52
2019-05-28T21:23:04.517Z,11.51
2019-05-28T21:25:07.507Z,11.48
2019-05-28T21:27:09.575Z,11.50
2019-05-28T21:29:11.936Z,11.47
2019-05-28T21:31:14.011Z,11.58
2019-05-28T21:33:16.135Z,11.57
2019-05-28T21:35:18.432Z,11.52
2019-05-28T21:37:20.554Z,11.53
2019-05-28T21:39:22.807Z,11.49
2019-05-28T21:41:25.343Z,11.50
2019-05-28T21:43:27.042Z,11.54
2019-05-28T21:45:29.383Z,11.49
2019-05-28T21:47:31.774Z,11.43
2019-05-28T21:51:12.241Z,11.35
2019-05-28T21:53:14.702Z,11.36
2019-05-28T21:55:16.379Z,11.36
2019-05-28T21:57:18.519Z,11.34
2019-05-28T21:59:20.851Z,11.37
2019-05-28T22:01:24.515Z,11.34
2019-05-28T22:03:27.057Z,11.34
2019-05-28T22:05:29.148Z,11.38
2019-05-28T22:07:33.032Z,11.29
2019-05-28T22:09:35.162Z,11.31
2019-05-28T22:11:37.426Z,11.29
2019-05-28T22:13:39.494Z,11.31
2019-05-28T22:15:41.548Z,11.13
2019-05-28T22:17:44.119Z,11.22
2019-05-28T22:19:46.206Z,11.15
2019-05-28T22:21:48.328Z,11.15
2019-05-28T22:23:51.020Z,11.14
2019-05-28T22:25:53.068Z,11.10
2019-05-28T22:27:56.447Z,11.00
2019-05-28T22:29:58.746Z,10.93
2019-05-28T22:32:00.915Z,10.88
2019-05-28T22:34:03.271Z,10.80
2019-05-28T22:36:05.554Z,10.76
2019-05-28T22:38:08.837Z,10.62
2019-05-28T22:40:11.464Z,10.67
2019-05-28T22:42:13.785Z,10.69
2019-05-28T22:44:15.967Z,10.61
2019-05-28T22:46:18.163Z,10.64
2019-05-28T22:48:21.083Z,10.60
2019-05-28T22:50:23.594Z,10.58
2019-05-28T22:52:25.735Z,10.51
2019-05-28T22:54:28.097Z,10.57
2019-05-28T22:56:30.243Z,10.52
2019-05-28T22:58:32.381Z,10.49
2019-05-28T23:00:34.581Z,10.31
2019-05-28T23:02:36.689Z,10.30
2019-05-28T23:04:38.824Z,10.35
2019-05-28T23:06:41.282Z,10.31
2019-05-28T23:08:43.878Z,10.20
2019-05-28T23:10:45.931Z,10.18
2019-05-28T23:12:48.174Z,10.19
2019-05-28T23:14:50.624Z,10.05
2019-05-28T23:16:53.689Z,10.07
2019-05-28T23:18:56.011Z,10.15
2019-05-28T23:20:58.189Z,10.15
2019-05-28T23:23:00.987Z,9.93
2019-05-28T23:25:05.323Z,10.00
2019-05-28T23:27:09.623Z,10.01
2019-05-28T23:29:12.066Z,10.09
2019-05-28T23:31:15.493Z,10.19
2019-05-28T23:33:17.796Z,10.16
2019-05-28T23:35:19.819Z,10.17
2019-05-28T23:37:22.365Z,10.23
2019-05-28T23:39:24.135Z,10.20
2019-05-28T23:41:26.117Z,10.22
2019-05-28T23:43:28.441Z,10.10
2019-05-28T23:45:32.313Z,10.18
2019-05-28T23:47:34.345Z,10.16
2019-05-28T23:49:36.669Z,10.18
2019-05-28T23:51:39.386Z,10.02
2019-05-28T23:53:41.658Z,10.16
2019-05-28T23:55:45.210Z,10.00
2019-05-28T23:57:47.304Z,10.03
2019-05-28T23:59:49.383Z,10.06
